Atlantic, Iowa
Current Conditions -  °F | °C
As of 11:15 PM on Wednesday 22 Oct 2014 (Local Time) from KAIO Reporting Station
Moderate Rain Moderate Rain  
Wind Chill: 57°   Ceiling: 3300
Heat Index: 57°   Visibility: 4mi
Dew Point: 55°   Wind: 0mph
Humidity: 94%   Direction: NA
Pressure: 30.11"   Gusts: NA
Location:  41.4°N, 95.01°W
Report Text: KAIO 230415Z AUTO 00000KT 4SM RA BKN033 OVC039 14/13 A3011 RMK AO2
Loading
Personal Weather Stations






























Interactive Weather Map
Tropical Storm Tracking
New forecast layout! Learn more

10-Day Weather Forecast

Advertisements
Track Severe Weather on mobile